createdAt,value
2017-11-09T00:02:03.286Z,34.70
2017-11-09T00:04:37.436Z,35.40
2017-11-09T00:07:05.009Z,36.87
2017-11-09T00:09:32.607Z,35.30
2017-11-09T00:12:00.176Z,36.83
2017-11-09T00:14:27.770Z,35.13
2017-11-09T00:16:55.345Z,34.37
2017-11-09T00:19:22.929Z,36.10
2017-11-09T00:21:50.505Z,31.50
2017-11-09T00:24:18.100Z,35.90
2017-11-09T00:26:45.669Z,34.30
2017-11-09T00:29:13.273Z,33.03
2017-11-09T00:31:40.843Z,33.07
2017-11-09T00:34:08.439Z,33.77
2017-11-09T00:36:36.011Z,35.30
2017-11-09T00:39:03.603Z,35.63
2017-11-09T00:41:31.192Z,34.77
2017-11-09T00:43:58.797Z,36.07
2017-11-09T00:46:26.362Z,35.43
2017-11-09T00:48:53.965Z,33.97
2017-11-09T00:51:21.539Z,36.33
2017-11-09T00:53:49.145Z,35.93
2017-11-09T00:56:16.744Z,34.87
2017-11-09T00:58:44.339Z,34.63
2017-11-09T01:01:12.686Z,34.67
2017-11-09T01:03:40.285Z,35.47
2017-11-09T01:06:07.894Z,34.90
2017-11-09T01:08:36.658Z,33.23
2017-11-09T01:11:04.231Z,33.47
2017-11-09T01:13:31.834Z,33.20
2017-11-09T01:16:00.170Z,33.80
2017-11-09T01:18:27.774Z,33.80
2017-11-09T01:20:55.353Z,31.10
2017-11-09T01:23:22.945Z,34.47
2017-11-09T01:25:50.516Z,34.27
2017-11-09T01:28:18.106Z,33.20
2017-11-09T01:30:46.453Z,34.47
2017-11-09T01:33:14.045Z,37.60
2017-11-09T01:35:41.617Z,35.90
2017-11-09T01:38:09.204Z,35.30
2017-11-09T01:40:36.782Z,36.60
2017-11-09T01:43:04.370Z,37.30
2017-11-09T01:45:32.712Z,35.83
2017-11-09T01:48:00.289Z,37.60
2017-11-09T01:50:27.899Z,36.10
2017-11-09T01:52:56.248Z,37.40
2017-11-09T01:55:23.841Z,39.30
2017-11-09T01:57:51.408Z,37.17
2017-11-09T02:00:19.015Z,36.90
2017-11-09T02:02:47.360Z,38.07
2017-11-09T02:05:14.963Z,37.17
2017-11-09T02:07:42.527Z,35.93
2017-11-09T02:10:10.113Z,38.97
2017-11-09T02:12:37.691Z,38.97
2017-11-09T02:15:05.279Z,37.33
2017-11-09T02:17:33.616Z,37.97
2017-11-09T02:20:01.205Z,37.20
2017-11-09T02:22:28.778Z,38.30
2017-11-09T02:24:56.378Z,37.47
2017-11-09T02:27:23.957Z,36.43
2017-11-09T02:29:51.547Z,37.63
2017-11-09T02:32:19.887Z,38.10
2017-11-09T02:34:47.480Z,35.13
2017-11-09T02:37:15.049Z,38.93
2017-11-09T02:39:42.646Z,38.97
2017-11-09T02:42:10.993Z,37.10
2017-11-09T02:44:38.586Z,36.17
2017-11-09T02:47:06.176Z,38.80
2017-11-09T02:49:33.766Z,37.87
2017-11-09T02:52:01.329Z,39.10
2017-11-09T02:54:31.683Z,36.30
2017-11-09T02:57:00.022Z,35.07
2017-11-09T02:59:27.624Z,34.20
2017-11-09T03:01:55.192Z,34.13
2017-11-09T03:04:22.781Z,35.20
2017-11-09T03:06:50.345Z,36.43
2017-11-09T03:09:17.938Z,35.30
2017-11-09T03:11:46.285Z,35.73
2017-11-09T03:14:13.886Z,34.63
2017-11-09T03:16:41.462Z,33.17
2017-11-09T03:19:09.057Z,35.20
2017-11-09T03:21:37.393Z,33.97
2017-11-09T03:24:04.976Z,36.17
2017-11-09T03:26:33.570Z,35.07
2017-11-09T03:29:01.159Z,36.90
2017-11-09T03:31:28.731Z,35.43
2017-11-09T03:33:56.310Z,36.57
2017-11-09T03:36:23.915Z,35.80
2017-11-09T03:38:52.284Z,35.27
2017-11-09T03:41:19.878Z,34.20
2017-11-09T03:43:47.455Z,35.93
2017-11-09T03:46:15.833Z,34.43
2017-11-09T03:48:43.413Z,33.20
2017-11-09T03:51:11.010Z,36.20
2017-11-09T03:53:39.341Z,35.30
2017-11-09T03:56:06.942Z,36.10
2017-11-09T03:58:34.541Z,34.43
2017-11-09T04:01:02.876Z,34.97
2017-11-09T04:03:30.471Z,34.63
2017-11-09T04:05:58.062Z,34.23
2017-11-09T04:08:25.658Z,34.97
2017-11-09T04:10:53.992Z,33.13
2017-11-09T04:13:21.597Z,35.33
2017-11-09T04:15:49.169Z,34.37
2017-11-09T04:18:16.768Z,37.17
2017-11-09T04:20:45.102Z,35.23
2017-11-09T04:23:12.813Z,36.23
2017-11-09T04:25:40.388Z,34.20
2017-11-09T04:28:07.968Z,33.63
2017-11-09T04:30:35.575Z,35.20
2017-11-09T04:33:03.912Z,34.93
2017-11-09T04:35:31.512Z,34.57
2017-11-09T04:37:59.075Z,35.40
2017-11-09T04:40:26.679Z,34.83
2017-11-09T04:42:55.019Z,35.23
2017-11-09T04:45:23.385Z,35.00
2017-11-09T04:47:50.957Z,34.03
2017-11-09T04:50:18.550Z,35.00
2017-11-09T04:52:46.117Z,34.30
2017-11-09T04:55:13.709Z,33.80
2017-11-09T04:57:41.281Z,32.80
2017-11-09T05:00:08.888Z,34.30
2017-11-09T05:02:36.467Z,34.30
2017-11-09T05:05:04.183Z,33.30
2017-11-09T05:07:31.749Z,34.20
2017-11-09T05:09:59.364Z,32.27
2017-11-09T05:12:26.954Z,32.50
2017-11-09T05:14:54.564Z,34.50
2017-11-09T05:17:22.906Z,35.90
2017-11-09T05:19:50.504Z,34.83
2017-11-09T05:22:18.084Z,34.40
2017-11-09T05:24:45.681Z,34.00
2017-11-09T05:27:13.275Z,32.50
2017-11-09T05:29:40.869Z,33.60
2017-11-09T05:32:08.444Z,35.57
2017-11-09T05:34:36.074Z,32.93
2017-11-09T05:37:03.657Z,35.70
2017-11-09T05:39:31.233Z,36.80
2017-11-09T05:41:58.829Z,34.90
2017-11-09T05:44:26.412Z,34.90
2017-11-09T05:46:54.000Z,35.17
2017-11-09T05:49:21.588Z,34.87
2017-11-09T05:51:49.181Z,38.07
2017-11-09T05:54:17.530Z,36.07
2017-11-09T05:56:45.132Z,36.37
2017-11-09T05:59:12.743Z,35.20
2017-11-09T06:01:40.354Z,34.67
2017-11-09T06:04:07.935Z,35.07
2017-11-09T06:06:35.526Z,34.63
2017-11-09T06:09:03.099Z,36.47
2017-11-09T06:11:30.714Z,35.50
2017-11-09T06:13:59.101Z,35.50
2017-11-09T06:16:27.445Z,34.20
2017-11-09T06:18:55.037Z,35.63
2017-11-09T06:21:22.632Z,36.77
2017-11-09T06:23:50.965Z,35.80
2017-11-09T06:26:18.561Z,34.83
2017-11-09T06:28:46.129Z,35.53
2017-11-09T06:31:14.482Z,38.40
2017-11-09T06:33:42.082Z,37.13
2017-11-09T06:36:09.720Z,37.47
2017-11-09T06:38:37.327Z,36.70
2017-11-09T06:41:04.907Z,38.40
2017-11-09T06:43:32.509Z,37.83
2017-11-09T06:46:00.084Z,37.67
2017-11-09T06:48:27.680Z,38.10
2017-11-09T06:50:55.254Z,38.20
2017-11-09T06:53:22.828Z,38.53
2017-11-09T06:55:50.425Z,39.40
2017-11-09T06:58:18.139Z,38.00
2017-11-09T07:00:45.748Z,36.57
2017-11-09T07:03:13.371Z,40.13
2017-11-09T07:05:40.953Z,37.80
2017-11-09T07:08:08.512Z,36.73
2017-11-09T07:10:36.096Z,36.37
2017-11-09T07:13:03.666Z,37.90
2017-11-09T07:15:31.260Z,40.57
2017-11-09T07:17:58.835Z,38.23
2017-11-09T07:20:26.422Z,39.40
2017-11-09T07:22:53.995Z,38.93
2017-11-09T07:25:22.357Z,40.60
2017-11-09T07:27:49.931Z,42.87
2017-11-09T07:30:17.522Z,43.50
2017-11-09T07:32:45.111Z,44.87
2017-11-09T07:35:12.701Z,43.23
2017-11-09T07:37:40.281Z,43.33
2017-11-09T07:40:07.874Z,43.67
2017-11-09T07:42:36.213Z,41.57
2017-11-09T07:45:03.808Z,42.83
2017-11-09T07:47:31.372Z,42.10
2017-11-09T07:49:58.970Z,42.80
2017-11-09T07:52:27.316Z,42.30
2017-11-09T07:54:54.900Z,41.00
2017-11-09T07:57:22.473Z,41.23
2017-11-09T07:59:50.072Z,45.13
2017-11-09T08:02:17.649Z,43.80
2017-11-09T08:04:45.250Z,44.00
2017-11-09T08:07:13.595Z,42.73
2017-11-09T08:09:41.222Z,42.20
2017-11-09T08:12:09.562Z,42.53
2017-11-09T08:14:37.151Z,45.03
2017-11-09T08:17:04.721Z,47.30
2017-11-09T08:19:32.329Z,46.40
2017-11-09T08:22:00.664Z,45.77
2017-11-09T08:24:28.802Z,48.00
2017-11-09T08:27:01.138Z,48.43
2017-11-09T08:29:31.590Z,46.80
2017-11-09T08:32:01.482Z,44.10
2017-11-09T08:34:29.082Z,44.90
2017-11-09T08:36:56.668Z,47.17
2017-11-09T08:39:24.268Z,46.40
2017-11-09T08:41:51.858Z,49.50
2017-11-09T08:44:19.458Z,46.83
2017-11-09T08:46:47.030Z,47.67
2017-11-09T08:49:14.626Z,49.23
2017-11-09T08:51:42.194Z,49.30
2017-11-09T08:54:09.788Z,47.67
2017-11-09T08:56:37.365Z,49.83
2017-11-09T08:59:04.976Z,48.50
2017-11-09T09:01:33.318Z,49.57
2017-11-09T09:04:00.920Z,53.57
2017-11-09T09:06:28.494Z,51.00
2017-11-09T09:08:56.101Z,50.23
2017-11-09T09:11:24.432Z,50.90
2017-11-09T09:13:52.034Z,52.27
2017-11-09T09:16:19.609Z,47.93
2017-11-09T09:18:47.218Z,52.17
2017-11-09T09:21:24.709Z,52.90
2017-11-09T09:23:52.863Z,53.37
2017-11-09T09:26:21.857Z,48.50
2017-11-09T09:28:59.361Z,55.60
2017-11-09T09:31:26.938Z,53.50
2017-11-09T09:33:58.421Z,50.80
2017-11-09T09:36:37.254Z,51.40
2017-11-09T09:39:06.186Z,49.23
2017-11-09T09:41:33.765Z,51.77
2017-11-09T09:44:01.368Z,50.47
2017-11-09T09:46:28.962Z,51.00
2017-11-09T09:48:56.570Z,53.33
2017-11-09T09:51:24.132Z,51.80
2017-11-09T09:53:51.762Z,51.00
2017-11-09T09:56:19.348Z,48.20
2017-11-09T09:58:46.950Z,52.30
2017-11-09T10:01:14.524Z,42.90
2017-11-09T10:03:42.136Z,51.20
2017-11-09T10:06:09.717Z,52.40
2017-11-09T10:08:38.081Z,54.70
2017-11-09T10:11:06.445Z,44.47
2017-11-09T10:13:34.009Z,51.37
2017-11-09T10:16:01.607Z,51.97
2017-11-09T10:18:29.229Z,45.97
2017-11-09T10:20:57.581Z,48.23
2017-11-09T10:23:25.182Z,46.33
2017-11-09T10:25:52.755Z,47.40
2017-11-09T10:28:20.336Z,49.57
2017-11-09T10:30:48.698Z,45.60
2017-11-09T10:33:21.268Z,48.20
2017-11-09T10:35:48.866Z,49.10
2017-11-09T10:38:16.437Z,43.87
2017-11-09T10:40:44.042Z,47.20
2017-11-09T10:43:11.613Z,45.30
2017-11-09T10:45:39.215Z,46.43
2017-11-09T10:48:06.781Z,41.47
2017-11-09T10:50:35.172Z,40.73
2017-11-09T10:53:03.541Z,37.10
2017-11-09T10:55:31.114Z,41.30
2017-11-09T10:57:58.725Z,41.23
2017-11-09T11:00:32.070Z,41.30
2017-11-09T11:02:59.665Z,43.10
2017-11-09T11:05:27.237Z,34.97
2017-11-09T11:07:54.829Z,39.80
2017-11-09T11:10:22.398Z,34.00
2017-11-09T11:12:50.004Z,38.80
2017-11-09T11:15:17.573Z,39.10
2017-11-09T11:17:45.197Z,39.50
2017-11-09T11:20:12.762Z,40.97
2017-11-09T11:22:40.329Z,37.07
2017-11-09T11:25:07.940Z,39.83
2017-11-09T11:27:35.518Z,37.30
2017-11-09T11:30:03.112Z,37.07
2017-11-09T11:32:31.452Z,37.53
2017-11-09T11:34:59.042Z,40.00
2017-11-09T11:37:26.610Z,37.80
2017-11-09T11:39:54.201Z,35.50
2017-11-09T11:42:21.777Z,37.53
2017-11-09T11:44:49.378Z,36.67
2017-11-09T11:47:17.713Z,33.17
2017-11-09T11:49:45.308Z,41.80
2017-11-09T11:52:12.881Z,38.40
2017-11-09T11:54:40.467Z,39.70
2017-11-09T11:57:08.044Z,40.60
2017-11-09T11:59:35.641Z,41.17
2017-11-09T12:02:03.982Z,38.00
2017-11-09T12:04:31.604Z,35.60
2017-11-09T12:06:59.958Z,36.77
2017-11-09T12:09:27.609Z,39.80
2017-11-09T12:11:59.990Z,34.60
2017-11-09T12:14:27.553Z,36.00
2017-11-09T12:16:55.160Z,35.10
2017-11-09T12:19:22.725Z,36.40
2017-11-09T12:21:51.076Z,38.13
2017-11-09T12:24:19.414Z,39.27
2017-11-09T12:26:47.777Z,36.67
2017-11-09T12:29:15.362Z,32.50
2017-11-09T12:31:42.969Z,35.03
2017-11-09T12:34:10.544Z,34.77
2017-11-09T12:36:38.148Z,37.23
2017-11-09T12:39:06.488Z,33.93
2017-11-09T12:41:34.080Z,33.80
2017-11-09T12:44:01.658Z,36.10
2017-11-09T12:46:31.180Z,41.00
2017-11-09T12:48:58.763Z,37.33
2017-11-09T12:51:26.356Z,36.80
2017-11-09T12:53:54.697Z,33.60
2017-11-09T12:56:22.317Z,32.97
2017-11-09T12:58:50.657Z,35.03
2017-11-09T13:01:18.232Z,38.20
2017-11-09T13:03:45.827Z,39.90
2017-11-09T13:06:13.518Z,38.30
2017-11-09T13:08:41.112Z,34.97
2017-11-09T13:11:08.723Z,35.73
2017-11-09T13:13:36.317Z,37.20
2017-11-09T13:16:03.901Z,38.00
2017-11-09T13:18:31.511Z,37.10
2017-11-09T13:20:59.844Z,40.37
2017-11-09T13:23:27.447Z,33.83
2017-11-09T13:25:55.027Z,40.70
2017-11-09T13:28:22.621Z,38.73
2017-11-09T13:30:50.953Z,39.60
2017-11-09T13:33:19.308Z,39.67
2017-11-09T13:35:46.880Z,35.50
2017-11-09T13:38:14.473Z,35.30
2017-11-09T13:40:42.055Z,36.20
2017-11-09T13:43:10.604Z,38.87
2017-11-09T13:45:41.089Z,39.43
2017-11-09T13:48:08.686Z,36.00
2017-11-09T13:50:36.257Z,35.80
2017-11-09T13:53:03.863Z,36.20
2017-11-09T13:55:31.434Z,37.80
2017-11-09T13:57:59.002Z,34.53
2017-11-09T14:00:28.407Z,35.67
2017-11-09T14:02:56.742Z,34.70
2017-11-09T14:05:24.327Z,34.67
2017-11-09T14:07:51.927Z,35.00
2017-11-09T14:10:21.494Z,33.17
2017-11-09T14:12:49.074Z,28.90
2017-11-09T14:15:16.679Z,29.53
2017-11-09T14:17:44.265Z,32.37
2017-11-09T14:20:11.874Z,31.83
2017-11-09T14:22:39.449Z,33.00
2017-11-09T14:25:07.057Z,35.00
2017-11-09T14:27:35.413Z,35.00
2017-11-09T14:30:03.009Z,34.00
2017-11-09T14:32:30.586Z,34.50
2017-11-09T14:34:58.203Z,30.93
2017-11-09T14:37:25.808Z,31.93
2017-11-09T14:39:53.381Z,36.03
2017-11-09T14:42:20.997Z,32.70
2017-11-09T14:44:49.338Z,34.70
2017-11-09T14:47:17.747Z,31.00
2017-11-09T14:49:45.326Z,33.20
2017-11-09T14:52:12.928Z,34.27
2017-11-09T14:54:41.271Z,34.67
2017-11-09T14:57:08.861Z,31.97
2017-11-09T14:59:36.444Z,33.30
2017-11-09T15:02:04.041Z,34.20
2017-11-09T15:04:31.628Z,34.90
2017-11-09T15:07:00.005Z,32.50
2017-11-09T15:09:27.576Z,32.30
2017-11-09T15:11:55.160Z,31.17
2017-11-09T15:14:22.736Z,35.40
2017-11-09T15:16:50.323Z,35.10
2017-11-09T15:19:18.663Z,35.37
2017-11-09T15:21:46.252Z,34.67
2017-11-09T15:24:13.826Z,33.20
2017-11-09T15:26:41.434Z,37.30
2017-11-09T15:29:09.769Z,33.40
2017-11-09T15:31:43.068Z,37.97
2017-11-09T15:34:10.641Z,34.50
2017-11-09T15:36:38.237Z,32.40
2017-11-09T15:39:05.809Z,35.93
2017-11-09T15:41:33.464Z,36.00
2017-11-09T15:44:01.034Z,34.20
2017-11-09T15:46:28.736Z,34.00
2017-11-09T15:48:56.305Z,33.60
2017-11-09T15:51:23.871Z,33.23
2017-11-09T15:53:51.538Z,33.70
2017-11-09T15:56:19.117Z,29.00
2017-11-09T15:58:46.715Z,29.07
2017-11-09T16:01:14.312Z,29.57
2017-11-09T16:03:42.694Z,28.43
2017-11-09T16:06:10.265Z,31.43
2017-11-09T16:08:37.867Z,30.10
2017-11-09T16:11:06.197Z,32.60
2017-11-09T16:13:33.820Z,33.90
2017-11-09T16:16:01.390Z,33.30
2017-11-09T16:18:28.958Z,32.00
2017-11-09T16:20:56.556Z,31.47
2017-11-09T16:23:24.890Z,33.53
2017-11-09T16:25:55.298Z,32.80
2017-11-09T16:28:23.628Z,24.80
2017-11-09T16:30:51.228Z,31.97
2017-11-09T16:33:18.803Z,32.10
2017-11-09T16:35:46.390Z,34.90
2017-11-09T16:38:13.989Z,34.47
2017-11-09T16:40:42.349Z,31.70
2017-11-09T16:43:09.917Z,29.20
2017-11-09T16:45:38.385Z,31.57
2017-11-09T16:48:05.948Z,29.50
2017-11-09T16:50:33.507Z,32.80
2017-11-09T16:53:02.948Z,30.50
2017-11-09T16:55:30.513Z,31.10
2017-11-09T16:57:58.092Z,30.40
2017-11-09T17:00:25.663Z,30.47
2017-11-09T17:02:53.261Z,32.37
2017-11-09T17:05:20.824Z,32.70
2017-11-09T17:07:48.583Z,32.90
2017-11-09T17:10:16.149Z,31.23
2017-11-09T17:12:43.747Z,32.27
2017-11-09T17:15:11.321Z,32.17
2017-11-09T17:17:38.916Z,32.37
2017-11-09T17:20:06.493Z,34.43
2017-11-09T17:22:34.083Z,33.23
2017-11-09T17:25:01.681Z,30.30
2017-11-09T17:27:30.037Z,31.00
2017-11-09T17:29:57.611Z,32.67
2017-11-09T17:32:25.233Z,32.40
2017-11-09T17:34:52.808Z,33.10
2017-11-09T17:37:20.381Z,30.47
2017-11-09T17:39:47.975Z,35.30
2017-11-09T17:42:19.368Z,32.37
2017-11-09T17:44:46.960Z,32.73
2017-11-09T17:47:14.533Z,33.37
2017-11-09T17:49:42.907Z,33.37
2017-11-09T17:52:10.477Z,35.03
2017-11-09T17:54:38.077Z,35.33
2017-11-09T17:57:05.637Z,34.67
2017-11-09T17:59:36.031Z,36.17
2017-11-09T18:02:03.606Z,35.93
2017-11-09T18:04:31.193Z,33.60
2017-11-09T18:06:58.765Z,33.43
2017-11-09T18:09:26.370Z,35.87
2017-11-09T18:11:53.937Z,35.03
2017-11-09T18:14:21.517Z,36.10
2017-11-09T18:16:49.087Z,31.67
2017-11-09T18:19:16.677Z,35.73
2017-11-09T18:21:44.251Z,28.03
2017-11-09T18:24:11.844Z,33.73
2017-11-09T18:26:40.205Z,38.30
2017-11-09T18:29:07.808Z,33.80
2017-11-09T18:31:36.146Z,35.23
2017-11-09T18:34:04.496Z,35.17
2017-11-09T18:36:32.827Z,27.07
2017-11-09T18:39:00.413Z,23.60
2017-11-09T18:41:27.984Z,36.73
2017-11-09T18:43:55.569Z,30.43
2017-11-09T18:46:23.133Z,37.27
2017-11-09T18:48:51.490Z,37.23
2017-11-09T18:51:19.821Z,35.67
2017-11-09T18:53:48.176Z,36.37
2017-11-09T18:56:16.512Z,35.37
2017-11-09T18:58:45.888Z,39.07
2017-11-09T19:01:13.453Z,33.70
2017-11-09T19:06:15.697Z,36.40
2017-11-09T19:08:43.291Z,36.87
2017-11-09T19:11:11.631Z,35.40
2017-11-09T19:13:39.988Z,38.47
2017-11-09T19:16:07.567Z,37.00
2017-11-09T19:18:35.156Z,38.40
2017-11-09T19:21:02.720Z,40.30
2017-11-09T19:23:30.312Z,38.10
2017-11-09T19:25:58.645Z,39.03
2017-11-09T19:28:26.233Z,37.40
2017-11-09T19:30:53.798Z,27.57
2017-11-09T19:33:21.401Z,36.43
2017-11-09T19:35:48.965Z,37.47
2017-11-09T19:38:16.553Z,42.27
2017-11-09T19:40:44.140Z,37.50
2017-11-09T19:43:12.491Z,40.00
2017-11-09T19:45:40.058Z,39.20
2017-11-09T19:48:07.649Z,36.70
2017-11-09T19:50:35.234Z,39.80
2017-11-09T19:53:02.830Z,39.03
2017-11-09T19:55:30.400Z,36.00
2017-11-09T19:57:57.994Z,41.23
2017-11-09T20:00:26.325Z,40.40
2017-11-09T20:02:53.917Z,41.17
2017-11-09T20:05:21.484Z,36.40
2017-11-09T20:07:49.080Z,41.00
2017-11-09T20:10:16.658Z,41.30
2017-11-09T20:12:44.240Z,39.60
2017-11-09T20:15:11.802Z,40.33
2017-11-09T20:17:39.398Z,39.43
2017-11-09T20:20:07.732Z,38.43
2017-11-09T20:22:35.325Z,40.93
2017-11-09T20:25:02.922Z,38.50
2017-11-09T20:27:30.515Z,34.87
2017-11-09T20:29:58.844Z,37.07
2017-11-09T20:32:26.432Z,38.07
2017-11-09T20:34:53.993Z,42.77
2017-11-09T20:37:21.594Z,40.47
2017-11-09T20:39:52.009Z,40.43
2017-11-09T20:42:19.604Z,40.30
2017-11-09T20:44:47.181Z,39.10
2017-11-09T20:47:14.785Z,34.70
2017-11-09T20:49:43.126Z,39.90
2017-11-09T20:52:13.192Z,38.80
2017-11-09T20:54:40.758Z,38.43
2017-11-09T20:57:08.327Z,40.50
2017-11-09T20:59:35.924Z,41.37
2017-11-09T21:02:03.506Z,33.57
2017-11-09T21:04:31.861Z,39.33
2017-11-09T21:06:59.437Z,37.53
2017-11-09T21:09:27.038Z,36.77
2017-11-09T21:11:54.614Z,43.13
2017-11-09T21:14:22.202Z,42.50
2017-11-09T21:16:50.566Z,41.90
2017-11-09T21:19:18.165Z,43.90
2017-11-09T21:21:46.500Z,39.10
2017-11-09T21:24:15.567Z,45.93
2017-11-09T21:26:43.911Z,48.00
2017-11-09T21:29:11.506Z,40.60
2017-11-09T21:31:39.076Z,45.83
2017-11-09T21:34:06.679Z,44.67
2017-11-09T21:36:34.253Z,42.90
2017-11-09T21:39:01.849Z,48.13
2017-11-09T21:41:29.425Z,47.90
2017-11-09T21:43:57.016Z,47.30
2017-11-09T21:46:24.582Z,44.50
2017-11-09T21:48:53.081Z,47.90
2017-11-09T21:51:20.648Z,46.17
2017-11-09T21:53:48.237Z,45.47
2017-11-09T21:56:15.805Z,46.20
2017-11-09T21:58:43.398Z,48.10
2017-11-09T22:01:10.977Z,51.30
2017-11-09T22:03:38.795Z,45.60
2017-11-09T22:06:06.366Z,50.90
2017-11-09T22:08:33.969Z,49.07
2017-11-09T22:11:01.550Z,49.23
2017-11-09T22:13:29.150Z,50.27
2017-11-09T22:15:56.743Z,52.90
2017-11-09T22:18:24.356Z,47.70
2017-11-09T22:20:52.694Z,29.80
2017-11-09T22:23:20.293Z,47.57
2017-11-09T22:25:47.863Z,49.20
2017-11-09T22:28:15.474Z,51.53
2017-11-09T22:30:43.813Z,51.50
2017-11-09T22:33:11.426Z,46.70
2017-11-09T22:35:38.998Z,49.00
2017-11-09T22:38:06.632Z,42.37
2017-11-09T22:40:34.202Z,45.73
2017-11-09T22:43:01.768Z,45.57
2017-11-09T22:45:29.386Z,49.00
2017-11-09T22:47:57.000Z,39.50
2017-11-09T22:50:24.603Z,46.10
2017-11-09T22:52:52.169Z,49.67
2017-11-09T22:55:19.813Z,36.87
2017-11-09T22:57:48.225Z,45.90
2017-11-09T23:00:15.868Z,39.70
2017-11-09T23:02:44.200Z,47.47
2017-11-09T23:05:11.847Z,46.90
2017-11-09T23:07:39.496Z,35.97
2017-11-09T23:10:07.162Z,34.47
2017-11-09T23:12:34.803Z,37.60
2017-11-09T23:15:02.448Z,42.20
2017-11-09T23:17:30.837Z,41.93
2017-11-09T23:19:59.253Z,44.10
2017-11-09T23:22:26.890Z,43.77
2017-11-09T23:24:55.327Z,35.07
2017-11-09T23:27:22.948Z,31.73
2017-11-09T23:29:50.611Z,40.27
2017-11-09T23:32:18.245Z,39.40
2017-11-09T23:34:45.916Z,36.47
2017-11-09T23:37:13.541Z,33.37
2017-11-09T23:39:41.194Z,37.87
2017-11-09T23:42:08.861Z,37.90
2017-11-09T23:44:36.517Z,43.43
2017-11-09T23:47:04.150Z,43.60
2017-11-09T23:49:31.816Z,41.67
2017-11-09T23:51:59.450Z,38.17
2017-11-09T23:54:27.862Z,42.77
2017-11-09T23:56:55.511Z,32.17
2017-11-09T23:59:23.169Z,37.70
